PADM Airport Information

Runway Information
Runway 07 Length 3201 ft width 100 ft
Elevation 70 ft Threshold 0 ft Heading 85
Runway 25 Length 3201 ft Width 100 ft
Elevation 103 ft Threshold 0 ft Heading 265
Airport Frequencies
Type CNTR Name ANCHORAGE Frequency 132.3 MHZ
Type CTAF Name CTAF Frequency 122.9 MHZ
Type RCO Name ST MARYS R Frequency 124 MHZ
Airport Navaids
Airport Weather Information & NOTAM
ADDS - METARS form results

(0847 UTC 24 April 2018)
 
METAR text: PADM 240756Z AUTO 09017KT 10SM FEW030 SCT075 BKN090 03/M02 A2932 RMK AO2 SLP939 T00281017 400561006
Conditions at: PADM (MARSHALL , AK, US) observed 0756 UTC 24 April 2018
Temperature: 2.8°C (37°F)
Dewpoint: -1.7°C (29°F) [RH = 72%]
Pressure (altimeter): 29.32 inches Hg (993.0 mb)
[Sea-level pressure: 993.9 mb]
Winds: from the E (90 degrees) at 20 MPH (17 knots; 8.8 m/s)
Visibility: 10 or more miles (16+ km)
Ceiling: 9000 feet AGL
Clouds: few clouds at 3000 feet AGL
scattered clouds at 7500 feet AGL
broken clouds at 9000 feet AGL
Weather: automated observation with no human augmentation;
there may or may not be significant weather present at this time